Terminal Aerodrome Forecast
Issued by NWS Detroit/Pontiac, MI

Home | Current Version | Previous Version | Text Only | Print | Product List | Glossary On
Versions: 1 2 3 4 5 6 7 8 9 10 11 12 13 14 15 16 17
000
FTUS43 KDTX 282041 AAA
TAFFNT
TAF AMD
KFNT 282041Z 2821/2918 22006KT P6SM SCT045 BKN100
      TEMPO 2821/2823 P6SM -SHRA BKN045 BKN100
     FM290100 28008KT 5SM BR BKN018
     FM290500 26006KT 6SM BR SCT016 BKN200
     FM291300 23012G22KT P6SM FEW025 SCT050
     FM291600 23015G25KT P6SM BKN050=

USA.gov is the U.S. government's official web portal to all federal, state and local government web resources and services.